createdAt,value
2023-01-25T00:01:09.392Z,2.74
2023-01-25T00:06:07.317Z,3.35
2023-01-25T00:11:04.385Z,3.23
2023-01-25T00:16:02.002Z,3.38
2023-01-25T00:20:58.712Z,2.95
2023-01-25T00:25:58.805Z,2.68
2023-01-25T00:30:59.869Z,2.86
2023-01-25T00:35:57.089Z,2.10
2023-01-25T00:40:53.805Z,2.32
2023-01-25T00:45:51.505Z,2.60
2023-01-25T00:50:48.357Z,2.25
2023-01-25T00:55:51.924Z,2.00
2023-01-25T01:00:48.757Z,2.35
2023-01-25T01:05:46.455Z,2.19
2023-01-25T01:10:43.544Z,2.22
2023-01-25T01:15:41.270Z,2.15
2023-01-25T01:20:38.085Z,1.69
2023-01-25T01:25:35.548Z,1.51
2023-01-25T01:30:32.351Z,2.16
2023-01-25T01:35:29.482Z,1.92
2023-01-25T01:40:26.619Z,1.78
2023-01-25T01:45:50.972Z,1.96
2023-01-25T01:50:56.521Z,2.15
2023-01-25T01:55:59.177Z,1.87
2023-01-25T02:00:57.000Z,2.36
2023-01-25T02:06:00.251Z,2.20
2023-01-25T02:10:58.442Z,2.35
2023-01-25T02:15:56.248Z,2.63
2023-01-25T02:20:57.233Z,2.66
2023-01-25T02:25:58.297Z,2.53
2023-01-25T02:30:55.133Z,2.30
2023-01-25T02:35:59.732Z,2.43
2023-01-25T02:41:02.990Z,2.50
2023-01-25T02:46:10.150Z,2.40
2023-01-25T02:51:07.854Z,1.89
2023-01-25T02:56:05.996Z,1.68
2023-01-25T03:01:03.205Z,2.11
2023-01-25T03:05:59.996Z,1.79
2023-01-25T03:10:58.280Z,1.92
2023-01-25T03:16:00.528Z,1.65
2023-01-25T03:21:03.623Z,1.67
2023-01-25T03:26:08.983Z,1.52
2023-01-25T03:31:12.448Z,1.88
2023-01-25T03:36:10.199Z,1.62
2023-01-25T03:41:08.854Z,1.84
2023-01-25T03:46:05.955Z,1.72
2023-01-25T03:51:04.649Z,2.13
2023-01-25T03:56:04.251Z,1.98
2023-01-25T04:01:02.564Z,2.09
2023-01-25T04:06:00.307Z,2.34
2023-01-25T04:11:02.829Z,2.45
2023-01-25T04:15:59.691Z,2.63
2023-01-25T04:21:16.727Z,2.80
2023-01-25T04:26:15.038Z,2.32
2023-01-25T04:31:18.420Z,2.81
2023-01-25T04:36:15.472Z,3.03
2023-01-25T04:41:13.249Z,2.81
2023-01-25T04:46:12.886Z,2.65
2023-01-25T04:51:10.266Z,3.02
2023-01-25T04:56:07.523Z,3.17
2023-01-25T05:01:14.412Z,3.27
2023-01-25T05:06:13.478Z,3.36
2023-01-25T05:11:10.501Z,3.30
2023-01-25T05:16:25.160Z,3.58
2023-01-25T05:21:40.308Z,3.64
2023-01-25T05:26:57.105Z,3.52
2023-01-25T05:31:56.522Z,3.66
2023-01-25T05:36:55.768Z,3.76
2023-01-25T05:41:57.885Z,3.79
2023-01-25T05:46:56.807Z,3.75
2023-01-25T05:51:54.947Z,3.16
2023-01-25T05:56:52.115Z,3.65
2023-01-25T06:01:49.180Z,3.84
2023-01-25T06:06:51.438Z,3.40
2023-01-25T06:11:48.747Z,3.36
2023-01-25T06:16:49.748Z,3.74
2023-01-25T06:22:08.613Z,3.37
2023-01-25T06:27:05.486Z,3.37
2023-01-25T06:32:02.330Z,3.44
2023-01-25T06:36:59.284Z,3.64
2023-01-25T06:41:56.812Z,3.73
2023-01-25T06:46:53.673Z,3.50
2023-01-25T06:51:50.470Z,3.77
2023-01-25T06:56:49.811Z,3.57
2023-01-25T07:01:47.362Z,3.80
2023-01-25T07:06:44.412Z,3.14
2023-01-25T07:11:43.042Z,3.67
2023-01-25T07:16:43.045Z,3.66
2023-01-25T07:21:40.663Z,3.60
2023-01-25T07:26:37.805Z,3.71
2023-01-25T07:31:34.608Z,3.14
2023-01-25T07:36:32.526Z,3.73
2023-01-25T07:41:30.061Z,3.89
2023-01-25T07:46:28.806Z,4.04
2023-01-25T07:51:27.237Z,3.51
2023-01-25T07:56:26.222Z,4.11
2023-01-25T08:01:25.523Z,4.13
2023-01-25T08:06:26.620Z,4.17
2023-01-25T08:11:25.935Z,4.22
2023-01-25T08:16:25.711Z,4.47
2023-01-25T08:21:24.874Z,4.43
2023-01-25T08:26:21.784Z,4.57
2023-01-25T08:31:21.063Z,4.41
2023-01-25T08:36:20.160Z,3.98
2023-01-25T08:41:19.219Z,4.25
2023-01-25T08:46:17.417Z,4.02
2023-01-25T08:51:18.695Z,3.26
2023-01-25T08:56:16.925Z,3.65
2023-01-25T09:01:15.610Z,3.39
2023-01-25T09:06:13.183Z,3.30
2023-01-25T09:11:13.016Z,3.63
2023-01-25T09:16:12.870Z,3.66
2023-01-25T09:21:14.961Z,3.83
2023-01-25T09:26:15.869Z,3.72
2023-01-25T09:31:21.733Z,3.66
2023-01-25T09:36:39.680Z,3.69
2023-01-25T09:42:06.657Z,3.52
2023-01-25T09:47:17.787Z,3.51
2023-01-25T09:52:27.079Z,3.47
2023-01-25T09:57:30.173Z,3.53
2023-01-25T10:02:38.189Z,3.04
2023-01-25T10:07:50.139Z,3.74
2023-01-25T10:12:47.914Z,3.44
2023-01-25T10:17:49.830Z,3.33
2023-01-25T10:22:57.379Z,3.73
2023-01-25T10:28:16.728Z,3.83
2023-01-25T10:33:18.034Z,3.83
2023-01-25T10:38:19.945Z,4.17
2023-01-25T10:43:20.173Z,4.34
2023-01-25T10:48:21.764Z,4.39
2023-01-25T10:53:23.474Z,3.99
2023-01-25T10:58:31.268Z,4.31
2023-01-25T11:03:35.517Z,3.98
2023-01-25T11:09:07.903Z,3.51
2023-01-25T11:14:17.057Z,4.16
2023-01-25T11:19:31.982Z,3.97
2023-01-25T11:24:31.512Z,3.73
2023-01-25T11:29:33.378Z,3.55
2023-01-25T11:34:33.481Z,3.87
2023-01-25T11:39:47.142Z,3.54
2023-01-25T11:45:35.527Z,3.76
2023-01-25T11:50:38.413Z,3.70
2023-01-25T11:55:40.549Z,3.85
2023-01-25T12:00:53.226Z,3.87
2023-01-25T12:05:58.000Z,3.10
2023-01-25T12:11:00.419Z,3.82
2023-01-25T12:16:25.864Z,3.71
2023-01-25T12:21:35.721Z,3.68
2023-01-25T12:26:43.586Z,3.40
2023-01-25T12:31:48.144Z,3.26
2023-01-25T12:36:47.666Z,3.64
2023-01-25T12:41:50.089Z,3.59
2023-01-25T12:46:55.077Z,3.43
2023-01-25T12:51:55.062Z,3.57
2023-01-25T12:57:05.509Z,3.51
2023-01-25T13:02:19.052Z,3.28
2023-01-25T13:07:22.237Z,3.58
2023-01-25T13:12:19.038Z,3.59
2023-01-25T13:17:30.633Z,3.23
2023-01-25T13:22:58.098Z,3.50
2023-01-25T13:28:25.664Z,3.44
2023-01-25T13:33:35.631Z,3.49
2023-01-25T13:38:36.327Z,3.28
2023-01-25T13:43:33.398Z,3.48
2023-01-25T13:48:35.064Z,3.28
2023-01-25T13:53:34.671Z,3.40
2023-01-25T13:58:33.691Z,3.27
2023-01-25T14:03:34.560Z,3.45
2023-01-25T14:08:32.434Z,3.05
2023-01-25T14:13:29.497Z,3.05
2023-01-25T14:18:29.900Z,3.02
2023-01-25T14:23:29.278Z,2.74
2023-01-25T14:28:27.044Z,3.47
2023-01-25T14:33:27.387Z,3.41
2023-01-25T14:38:27.982Z,2.87
2023-01-25T14:43:26.260Z,3.32
2023-01-25T14:48:36.968Z,3.20
2023-01-25T14:53:39.092Z,3.29
2023-01-25T14:58:35.934Z,2.91
2023-01-25T15:03:32.802Z,2.82
2023-01-25T15:08:30.978Z,3.04
2023-01-25T15:13:28.991Z,3.21
2023-01-25T15:18:42.769Z,2.95
2023-01-25T15:23:41.633Z,2.86
2023-01-25T15:28:39.145Z,3.14
2023-01-25T15:33:35.963Z,3.12
2023-01-25T15:38:32.792Z,3.05
2023-01-25T15:43:29.561Z,2.73
2023-01-25T15:48:32.549Z,3.08
2023-01-25T15:53:30.277Z,3.09
2023-01-25T15:58:31.323Z,3.11
2023-01-25T16:03:41.090Z,2.89
2023-01-25T16:08:53.097Z,2.71
2023-01-25T16:13:50.755Z,2.97
2023-01-25T16:18:49.144Z,2.98
2023-01-25T16:23:46.099Z,3.04
2023-01-25T16:28:43.058Z,3.03
2023-01-25T16:33:42.178Z,3.01
2023-01-25T16:38:39.724Z,2.83
2023-01-25T16:43:42.725Z,3.04
2023-01-25T16:48:39.747Z,3.03
2023-01-25T16:53:36.750Z,3.05
2023-01-25T16:58:35.279Z,2.42
2023-01-25T17:03:32.101Z,3.05
2023-01-25T17:08:28.899Z,3.05
2023-01-25T17:13:25.757Z,2.97
2023-01-25T17:18:23.214Z,2.53
2023-01-25T17:23:20.106Z,2.94
2023-01-25T17:28:17.038Z,2.90
2023-01-25T17:33:15.876Z,2.93
2023-01-25T17:38:13.663Z,2.87
2023-01-25T17:43:11.065Z,2.85
2023-01-25T17:48:08.640Z,3.05
2023-01-25T17:53:06.449Z,2.91
2023-01-25T17:58:05.909Z,2.86
2023-01-25T18:03:02.725Z,2.96
2023-01-25T18:07:59.529Z,2.54
2023-01-25T18:13:04.662Z,2.85
2023-01-25T18:18:04.983Z,2.80
2023-01-25T18:23:02.083Z,2.78
2023-01-25T18:28:01.463Z,2.55
2023-01-25T18:33:01.149Z,2.75
2023-01-25T18:37:59.122Z,2.76
2023-01-25T18:42:56.015Z,2.62
2023-01-25T18:47:52.908Z,2.39
2023-01-25T18:52:51.119Z,2.73
2023-01-25T18:57:49.211Z,2.69
2023-01-25T19:02:47.270Z,2.52
2023-01-25T19:07:44.259Z,2.57
2023-01-25T19:12:43.642Z,2.06
2023-01-25T19:17:41.928Z,2.67
2023-01-25T19:22:42.108Z,2.39
2023-01-25T19:27:41.228Z,2.65
2023-01-25T19:32:38.278Z,2.68
2023-01-25T19:37:54.398Z,2.66
2023-01-25T19:42:51.607Z,2.52
2023-01-25T19:47:48.517Z,2.52
2023-01-25T19:52:46.158Z,2.09
2023-01-25T19:57:42.962Z,2.48
2023-01-25T20:02:40.008Z,2.42
2023-01-25T20:07:36.888Z,2.54
2023-01-25T20:12:34.918Z,2.57
2023-01-25T20:17:42.640Z,2.58
2023-01-25T20:22:39.631Z,2.55
2023-01-25T20:27:39.303Z,2.34
2023-01-25T20:32:36.204Z,2.54
2023-01-25T20:37:33.073Z,2.54
2023-01-25T20:42:30.203Z,2.24
2023-01-25T20:47:27.683Z,2.45
2023-01-25T20:52:24.543Z,2.54
2023-01-25T20:57:21.429Z,2.09
2023-01-25T21:02:18.525Z,2.60
2023-01-25T21:07:16.152Z,2.57
2023-01-25T21:12:17.802Z,2.51
2023-01-25T21:17:14.881Z,2.19
2023-01-25T21:22:11.897Z,2.53
2023-01-25T21:27:12.721Z,2.56
2023-01-25T21:32:09.701Z,1.95
2023-01-25T21:37:06.487Z,2.24
2023-01-25T21:42:03.367Z,2.64
2023-01-25T21:47:27.851Z,2.54
2023-01-25T21:52:17.647Z,2.37
2023-01-25T21:57:14.443Z,2.68
2023-01-25T22:02:13.783Z,2.77
2023-01-25T22:07:11.317Z,2.52
2023-01-25T22:12:08.143Z,2.52
2023-01-25T22:17:05.154Z,2.06
2023-01-25T22:22:02.616Z,2.36
2023-01-25T22:27:36.684Z,2.28
2023-01-25T22:32:33.465Z,2.32
2023-01-25T22:37:33.818Z,2.29
2023-01-25T22:42:30.594Z,2.12
2023-01-25T22:47:27.447Z,2.22
2023-01-25T22:52:24.409Z,2.01
2023-01-25T22:57:21.931Z,1.99
2023-01-25T23:02:18.900Z,2.04
2023-01-25T23:07:18.227Z,2.14
2023-01-25T23:12:15.192Z,2.10
2023-01-25T23:17:30.466Z,1.83
2023-01-25T23:22:27.389Z,1.62
2023-01-25T23:27:24.138Z,1.68
2023-01-25T23:32:21.627Z,1.98
2023-01-25T23:37:19.219Z,1.88
2023-01-25T23:42:16.337Z,1.78
2023-01-25T23:47:13.179Z,1.47
2023-01-25T23:52:10.741Z,1.61
2023-01-25T23:57:07.529Z,1.76
